Decoded Metar for LFBP (PAU in FRANCE) (IATA:PUF) | Meteo·Mobile Aviation Weather
aviador You're here:

LFBP Decoded Metar

PAU in FRANCE
Report Time2018-12-17 10:00:00
UTC Time2018-12-17 10:32:11
Flight Rules vfr VFR
Wind140° at 05 kt
W.Decomp.*RWY 13: 4.9 kt HW 1.0 kt RCW
W.Rank140° ranks 10
Current wind is above 140° avg. (3.6)
Visibility9999 m
Phenomena:N/A
Clouds:Few 058 Hf
Expected CloudBase > 1,200 ft AGL from Temp-Dew spread
CeilingNone
Temp10°C (ISA -4)
Dew Point07°C (82% RH)
AAT7.5°C
QNH1029 hPa
Density Alt-249 ft
Elevation607 ft
Report Wrong Elevation
Raw Report
METAR LFBP 171000Z AUTO 14005KT 9999 FEW058 10/07 Q1029 NOSIG=

Extra information for LFBP:More info

Metar Taf Metar & Taf Last 4 Metars F.Rules Stats Wind Profile Meteogram Temp Stats Airport Information Weather charts Add Link Nearby VenuesMetar ALERT Operation Metar Decoded Social comments